sensor_id;sensor_type;location;lat;lon;timestamp;temperature;humidity
10282;DHT22;5186;59.472;18.048;2024-02-21T00:01:56;1.80;99.90
10282;DHT22;5186;59.472;18.048;2024-02-21T00:04:21;1.80;99.90
10282;DHT22;5186;59.472;18.048;2024-02-21T00:06:47;1.70;99.90
10282;DHT22;5186;59.472;18.048;2024-02-21T00:09:12;1.70;99.90
10282;DHT22;5186;59.472;18.048;2024-02-21T00:11:38;1.70;99.90
10282;DHT22;5186;59.472;18.048;2024-02-21T00:14:04;1.70;99.90
10282;DHT22;5186;59.472;18.048;2024-02-21T00:16:29;1.70;99.90
10282;DHT22;5186;59.472;18.048;2024-02-21T00:18:55;1.70;99.90
10282;DHT22;5186;59.472;18.048;2024-02-21T00:21:20;1.80;99.90
10282;DHT22;5186;59.472;18.048;2024-02-21T00:23:46;1.80;99.90
10282;DHT22;5186;59.472;18.048;2024-02-21T00:26:12;1.70;99.90
10282;DHT22;5186;59.472;18.048;2024-02-21T00:28:39;1.70;99.90
10282;DHT22;5186;59.472;18.048;2024-02-21T00:31:04;1.70;99.90
10282;DHT22;5186;59.472;18.048;2024-02-21T00:33:30;1.70;99.90
10282;DHT22;5186;59.472;18.048;2024-02-21T00:35:56;1.70;99.90
10282;DHT22;5186;59.472;18.048;2024-02-21T00:38:21;1.70;99.90
10282;DHT22;5186;59.472;18.048;2024-02-21T00:40:47;1.70;99.90
10282;DHT22;5186;59.472;18.048;2024-02-21T00:43:13;1.70;99.90
10282;DHT22;5186;59.472;18.048;2024-02-21T00:45:39;1.70;99.90
10282;DHT22;5186;59.472;18.048;2024-02-21T00:48:05;1.70;99.90
10282;DHT22;5186;59.472;18.048;2024-02-21T00:50:30;1.70;99.90
10282;DHT22;5186;59.472;18.048;2024-02-21T00:52:56;1.70;99.90
10282;DHT22;5186;59.472;18.048;2024-02-21T00:55:21;1.80;99.90
10282;DHT22;5186;59.472;18.048;2024-02-21T00:57:47;1.80;99.90
10282;DHT22;5186;59.472;18.048;2024-02-21T01:00:13;1.80;99.90
10282;DHT22;5186;59.472;18.048;2024-02-21T01:02:39;1.90;99.90
10282;DHT22;5186;59.472;18.048;2024-02-21T01:05:05;1.90;99.90
10282;DHT22;5186;59.472;18.048;2024-02-21T01:07:30;1.90;99.90
10282;DHT22;5186;59.472;18.048;2024-02-21T01:09:56;1.90;99.90
10282;DHT22;5186;59.472;18.048;2024-02-21T01:12:22;1.90;99.90
10282;DHT22;5186;59.472;18.048;2024-02-21T01:14:47;1.90;99.90
10282;DHT22;5186;59.472;18.048;2024-02-21T01:17:15;2.00;99.90
10282;DHT22;5186;59.472;18.048;2024-02-21T01:19:40;2.00;99.90
10282;DHT22;5186;59.472;18.048;2024-02-21T01:22:06;2.00;99.90
10282;DHT22;5186;59.472;18.048;2024-02-21T01:24:32;2.00;99.90
10282;DHT22;5186;59.472;18.048;2024-02-21T01:26:57;2.00;99.90
10282;DHT22;5186;59.472;18.048;2024-02-21T01:29:23;2.00;99.90
10282;DHT22;5186;59.472;18.048;2024-02-21T01:31:49;2.00;99.90
10282;DHT22;5186;59.472;18.048;2024-02-21T01:34:14;2.00;99.90
10282;DHT22;5186;59.472;18.048;2024-02-21T01:36:40;2.00;99.90
10282;DHT22;5186;59.472;18.048;2024-02-21T01:39:06;2.00;99.90
10282;DHT22;5186;59.472;18.048;2024-02-21T01:41:32;2.00;99.90
10282;DHT22;5186;59.472;18.048;2024-02-21T01:43:58;2.00;99.90
10282;DHT22;5186;59.472;18.048;2024-02-21T01:46:24;2.10;99.90
10282;DHT22;5186;59.472;18.048;2024-02-21T01:49:02;2.10;99.90
10282;DHT22;5186;59.472;18.048;2024-02-21T01:51:30;2.00;99.90
10282;DHT22;5186;59.472;18.048;2024-02-21T01:53:56;2.00;99.90
10282;DHT22;5186;59.472;18.048;2024-02-21T01:56:23;2.00;99.90
10282;DHT22;5186;59.472;18.048;2024-02-21T01:58:49;2.00;99.90
10282;DHT22;5186;59.472;18.048;2024-02-21T02:01:16;2.10;99.90
10282;DHT22;5186;59.472;18.048;2024-02-21T02:03:44;2.10;99.90
10282;DHT22;5186;59.472;18.048;2024-02-21T02:06:10;2.10;99.90
10282;DHT22;5186;59.472;18.048;2024-02-21T02:08:36;2.10;99.90
10282;DHT22;5186;59.472;18.048;2024-02-21T02:11:02;2.10;99.90
10282;DHT22;5186;59.472;18.048;2024-02-21T02:13:28;2.10;99.90
10282;DHT22;5186;59.472;18.048;2024-02-21T02:15:54;2.10;99.90
10282;DHT22;5186;59.472;18.048;2024-02-21T02:18:20;2.10;99.90
10282;DHT22;5186;59.472;18.048;2024-02-21T02:20:46;2.10;99.90
10282;DHT22;5186;59.472;18.048;2024-02-21T02:23:41;2.10;99.90
10282;DHT22;5186;59.472;18.048;2024-02-21T02:26:07;2.20;99.90
10282;DHT22;5186;59.472;18.048;2024-02-21T02:28:33;2.20;99.90
10282;DHT22;5186;59.472;18.048;2024-02-21T02:30:59;2.20;99.90
10282;DHT22;5186;59.472;18.048;2024-02-21T02:33:24;2.20;99.90
10282;DHT22;5186;59.472;18.048;2024-02-21T02:35:50;2.20;99.90
10282;DHT22;5186;59.472;18.048;2024-02-21T02:38:15;2.20;99.90
10282;DHT22;5186;59.472;18.048;2024-02-21T02:40:42;2.20;99.90
10282;DHT22;5186;59.472;18.048;2024-02-21T02:43:07;2.20;99.90
10282;DHT22;5186;59.472;18.048;2024-02-21T02:45:33;2.20;99.90
10282;DHT22;5186;59.472;18.048;2024-02-21T02:47:59;2.20;99.90
10282;DHT22;5186;59.472;18.048;2024-02-21T02:50:26;2.20;99.90
10282;DHT22;5186;59.472;18.048;2024-02-21T02:52:53;2.20;99.90
10282;DHT22;5186;59.472;18.048;2024-02-21T02:55:19;2.20;99.90
10282;DHT22;5186;59.472;18.048;2024-02-21T02:57:44;2.20;99.90
10282;DHT22;5186;59.472;18.048;2024-02-21T03:00:11;2.20;99.90
10282;DHT22;5186;59.472;18.048;2024-02-21T03:02:39;2.20;99.90
10282;DHT22;5186;59.472;18.048;2024-02-21T03:05:16;2.30;99.90
10282;DHT22;5186;59.472;18.048;2024-02-21T03:07:42;2.30;99.90
10282;DHT22;5186;59.472;18.048;2024-02-21T03:10:09;2.30;99.90
10282;DHT22;5186;59.472;18.048;2024-02-21T03:12:35;2.30;99.90
10282;DHT22;5186;59.472;18.048;2024-02-21T03:15:01;2.30;99.90
10282;DHT22;5186;59.472;18.048;2024-02-21T03:17:27;2.30;99.90
10282;DHT22;5186;59.472;18.048;2024-02-21T03:19:53;2.30;99.90
10282;DHT22;5186;59.472;18.048;2024-02-21T03:22:21;2.40;99.90
10282;DHT22;5186;59.472;18.048;2024-02-21T03:24:46;2.30;99.90
10282;DHT22;5186;59.472;18.048;2024-02-21T03:27:12;2.30;99.90
10282;DHT22;5186;59.472;18.048;2024-02-21T03:29:38;2.40;99.90
10282;DHT22;5186;59.472;18.048;2024-02-21T03:32:03;2.40;99.90
10282;DHT22;5186;59.472;18.048;2024-02-21T03:34:29;2.50;99.90
10282;DHT22;5186;59.472;18.048;2024-02-21T03:36:55;2.40;99.90
10282;DHT22;5186;59.472;18.048;2024-02-21T03:39:20;2.50;99.90
10282;DHT22;5186;59.472;18.048;2024-02-21T03:41:47;2.40;99.90
10282;DHT22;5186;59.472;18.048;2024-02-21T03:44:12;2.50;99.90
10282;DHT22;5186;59.472;18.048;2024-02-21T03:46:38;2.50;99.90
10282;DHT22;5186;59.472;18.048;2024-02-21T03:49:04;2.50;99.90
10282;DHT22;5186;59.472;18.048;2024-02-21T03:51:29;2.50;99.90
10282;DHT22;5186;59.472;18.048;2024-02-21T03:53:55;2.50;99.90
10282;DHT22;5186;59.472;18.048;2024-02-21T03:56:21;2.50;99.90
10282;DHT22;5186;59.472;18.048;2024-02-21T03:58:46;2.50;99.90
10282;DHT22;5186;59.472;18.048;2024-02-21T04:01:12;2.50;99.90
10282;DHT22;5186;59.472;18.048;2024-02-21T04:03:40;2.60;99.90
10282;DHT22;5186;59.472;18.048;2024-02-21T04:06:06;2.60;99.90
10282;DHT22;5186;59.472;18.048;2024-02-21T04:08:31;2.60;99.90
10282;DHT22;5186;59.472;18.048;2024-02-21T04:10:57;2.60;99.90
10282;DHT22;5186;59.472;18.048;2024-02-21T04:13:22;2.70;99.90
10282;DHT22;5186;59.472;18.048;2024-02-21T04:15:48;2.60;99.90
10282;DHT22;5186;59.472;18.048;2024-02-21T04:18:14;2.60;99.90
10282;DHT22;5186;59.472;18.048;2024-02-21T04:20:40;2.70;99.90
10282;DHT22;5186;59.472;18.048;2024-02-21T04:23:06;2.70;99.90
10282;DHT22;5186;59.472;18.048;2024-02-21T04:25:31;2.70;99.90
10282;DHT22;5186;59.472;18.048;2024-02-21T04:27:57;2.70;99.90
10282;DHT22;5186;59.472;18.048;2024-02-21T04:30:22;2.70;99.90
10282;DHT22;5186;59.472;18.048;2024-02-21T04:32:48;2.70;99.90
10282;DHT22;5186;59.472;18.048;2024-02-21T04:35:14;2.80;99.90
10282;DHT22;5186;59.472;18.048;2024-02-21T04:37:39;2.80;99.90
10282;DHT22;5186;59.472;18.048;2024-02-21T04:40:05;2.80;99.90
10282;DHT22;5186;59.472;18.048;2024-02-21T04:42:31;2.80;99.90
10282;DHT22;5186;59.472;18.048;2024-02-21T04:44:57;2.80;99.90
10282;DHT22;5186;59.472;18.048;2024-02-21T04:47:22;2.80;99.90
10282;DHT22;5186;59.472;18.048;2024-02-21T04:49:51;2.80;99.90
10282;DHT22;5186;59.472;18.048;2024-02-21T04:52:17;2.80;99.90
10282;DHT22;5186;59.472;18.048;2024-02-21T04:54:43;2.90;99.90
10282;DHT22;5186;59.472;18.048;2024-02-21T04:57:08;2.90;99.90
10282;DHT22;5186;59.472;18.048;2024-02-21T04:59:35;2.90;99.90
10282;DHT22;5186;59.472;18.048;2024-02-21T05:02:02;2.90;99.90
10282;DHT22;5186;59.472;18.048;2024-02-21T05:04:27;2.90;99.90
10282;DHT22;5186;59.472;18.048;2024-02-21T05:06:53;2.90;99.90
10282;DHT22;5186;59.472;18.048;2024-02-21T05:09:20;3.00;99.90
10282;DHT22;5186;59.472;18.048;2024-02-21T05:11:45;2.90;99.90
10282;DHT22;5186;59.472;18.048;2024-02-21T05:14:11;3.00;99.90
10282;DHT22;5186;59.472;18.048;2024-02-21T05:16:38;3.00;99.90
10282;DHT22;5186;59.472;18.048;2024-02-21T05:19:04;3.10;99.90
10282;DHT22;5186;59.472;18.048;2024-02-21T05:21:29;3.00;99.90
10282;DHT22;5186;59.472;18.048;2024-02-21T05:23:55;3.10;99.90
10282;DHT22;5186;59.472;18.048;2024-02-21T05:26:22;3.10;99.90
10282;DHT22;5186;59.472;18.048;2024-02-21T05:28:48;3.10;99.90
10282;DHT22;5186;59.472;18.048;2024-02-21T05:31:13;3.10;99.90
10282;DHT22;5186;59.472;18.048;2024-02-21T05:33:39;3.10;99.90
10282;DHT22;5186;59.472;18.048;2024-02-21T05:36:05;3.10;99.90
10282;DHT22;5186;59.472;18.048;2024-02-21T05:38:31;3.20;99.90
10282;DHT22;5186;59.472;18.048;2024-02-21T05:40:57;3.20;99.90
10282;DHT22;5186;59.472;18.048;2024-02-21T05:43:23;3.20;99.90
10282;DHT22;5186;59.472;18.048;2024-02-21T05:45:48;3.20;99.90
10282;DHT22;5186;59.472;18.048;2024-02-21T05:48:14;3.30;99.90
10282;DHT22;5186;59.472;18.048;2024-02-21T05:50:40;3.30;99.90
10282;DHT22;5186;59.472;18.048;2024-02-21T05:53:05;3.30;99.90
10282;DHT22;5186;59.472;18.048;2024-02-21T05:55:31;3.30;99.90
10282;DHT22;5186;59.472;18.048;2024-02-21T05:57:57;3.40;99.90
10282;DHT22;5186;59.472;18.048;2024-02-21T06:00:22;3.30;99.90
10282;DHT22;5186;59.472;18.048;2024-02-21T06:02:48;3.30;99.90
10282;DHT22;5186;59.472;18.048;2024-02-21T06:05:13;3.30;99.90
10282;DHT22;5186;59.472;18.048;2024-02-21T06:07:39;3.40;99.90
10282;DHT22;5186;59.472;18.048;2024-02-21T06:10:06;3.30;99.90
10282;DHT22;5186;59.472;18.048;2024-02-21T06:12:32;3.40;99.90
10282;DHT22;5186;59.472;18.048;2024-02-21T06:14:57;3.40;99.90
10282;DHT22;5186;59.472;18.048;2024-02-21T06:17:23;3.40;99.90
10282;DHT22;5186;59.472;18.048;2024-02-21T06:19:48;3.40;99.90
10282;DHT22;5186;59.472;18.048;2024-02-21T06:22:14;3.40;99.90
10282;DHT22;5186;59.472;18.048;2024-02-21T06:24:40;3.40;99.90
10282;DHT22;5186;59.472;18.048;2024-02-21T06:27:05;3.50;99.90
10282;DHT22;5186;59.472;18.048;2024-02-21T06:29:34;3.50;99.90
10282;DHT22;5186;59.472;18.048;2024-02-21T06:32:01;3.50;99.90
10282;DHT22;5186;59.472;18.048;2024-02-21T06:34:27;3.50;99.90
10282;DHT22;5186;59.472;18.048;2024-02-21T06:36:52;3.50;99.90
10282;DHT22;5186;59.472;18.048;2024-02-21T06:39:18;3.50;99.90
10282;DHT22;5186;59.472;18.048;2024-02-21T06:41:44;3.60;99.90
10282;DHT22;5186;59.472;18.048;2024-02-21T06:44:09;3.50;99.90
10282;DHT22;5186;59.472;18.048;2024-02-21T06:46:35;3.60;99.90
10282;DHT22;5186;59.472;18.048;2024-02-21T06:49:02;3.60;99.90
10282;DHT22;5186;59.472;18.048;2024-02-21T06:51:29;3.60;99.90
10282;DHT22;5186;59.472;18.048;2024-02-21T06:53:55;3.60;99.90
10282;DHT22;5186;59.472;18.048;2024-02-21T06:56:22;3.60;99.90
10282;DHT22;5186;59.472;18.048;2024-02-21T06:58:52;3.60;99.90
10282;DHT22;5186;59.472;18.048;2024-02-21T07:01:17;3.70;99.90
10282;DHT22;5186;59.472;18.048;2024-02-21T07:03:43;3.70;99.90
10282;DHT22;5186;59.472;18.048;2024-02-21T07:06:09;3.70;99.90
10282;DHT22;5186;59.472;18.048;2024-02-21T07:08:34;3.70;99.90
10282;DHT22;5186;59.472;18.048;2024-02-21T07:11:00;3.70;99.90
10282;DHT22;5186;59.472;18.048;2024-02-21T07:13:25;3.70;99.90
10282;DHT22;5186;59.472;18.048;2024-02-21T07:15:51;3.80;99.90
10282;DHT22;5186;59.472;18.048;2024-02-21T07:18:17;3.80;99.90
10282;DHT22;5186;59.472;18.048;2024-02-21T07:20:42;3.80;99.90
10282;DHT22;5186;59.472;18.048;2024-02-21T07:23:08;3.80;99.90
10282;DHT22;5186;59.472;18.048;2024-02-21T07:25:34;3.80;99.90
10282;DHT22;5186;59.472;18.048;2024-02-21T07:28:00;3.80;99.90
10282;DHT22;5186;59.472;18.048;2024-02-21T07:30:25;3.90;99.90
10282;DHT22;5186;59.472;18.048;2024-02-21T07:32:51;3.90;99.90
10282;DHT22;5186;59.472;18.048;2024-02-21T07:35:20;3.90;99.90
10282;DHT22;5186;59.472;18.048;2024-02-21T07:37:45;4.00;99.90
10282;DHT22;5186;59.472;18.048;2024-02-21T07:40:15;4.00;99.90
10282;DHT22;5186;59.472;18.048;2024-02-21T07:42:41;4.00;99.90
10282;DHT22;5186;59.472;18.048;2024-02-21T07:45:08;4.00;99.90
10282;DHT22;5186;59.472;18.048;2024-02-21T07:47:34;4.00;99.90
10282;DHT22;5186;59.472;18.048;2024-02-21T07:50:01;4.10;99.90
10282;DHT22;5186;59.472;18.048;2024-02-21T07:52:26;4.10;99.90
10282;DHT22;5186;59.472;18.048;2024-02-21T07:54:52;4.10;99.90
10282;DHT22;5186;59.472;18.048;2024-02-21T07:57:18;4.10;99.90
10282;DHT22;5186;59.472;18.048;2024-02-21T07:59:43;4.20;99.90
10282;DHT22;5186;59.472;18.048;2024-02-21T08:02:09;4.20;99.90
10282;DHT22;5186;59.472;18.048;2024-02-21T08:04:35;4.20;99.90
10282;DHT22;5186;59.472;18.048;2024-02-21T08:07:00;4.20;99.90
10282;DHT22;5186;59.472;18.048;2024-02-21T08:09:30;4.30;99.90
10282;DHT22;5186;59.472;18.048;2024-02-21T08:11:55;4.30;99.90
10282;DHT22;5186;59.472;18.048;2024-02-21T08:14:22;4.30;99.90
10282;DHT22;5186;59.472;18.048;2024-02-21T08:16:48;4.30;99.90
10282;DHT22;5186;59.472;18.048;2024-02-21T08:19:13;4.40;99.90
10282;DHT22;5186;59.472;18.048;2024-02-21T08:21:39;4.40;99.90
10282;DHT22;5186;59.472;18.048;2024-02-21T08:24:05;4.40;99.90
10282;DHT22;5186;59.472;18.048;2024-02-21T08:26:30;4.40;99.90
10282;DHT22;5186;59.472;18.048;2024-02-21T08:28:59;4.40;99.90
10282;DHT22;5186;59.472;18.048;2024-02-21T08:31:26;4.50;99.90
10282;DHT22;5186;59.472;18.048;2024-02-21T08:34:00;4.50;99.90
10282;DHT22;5186;59.472;18.048;2024-02-21T08:36:32;4.50;99.90
10282;DHT22;5186;59.472;18.048;2024-02-21T08:38:58;4.50;99.90
10282;DHT22;5186;59.472;18.048;2024-02-21T08:41:24;4.60;99.90
10282;DHT22;5186;59.472;18.048;2024-02-21T08:43:54;4.60;99.90
10282;DHT22;5186;59.472;18.048;2024-02-21T08:46:20;4.60;99.90
10282;DHT22;5186;59.472;18.048;2024-02-21T08:48:46;4.70;99.90
10282;DHT22;5186;59.472;18.048;2024-02-21T08:51:15;4.60;99.90
10282;DHT22;5186;59.472;18.048;2024-02-21T08:53:41;4.70;99.90
10282;DHT22;5186;59.472;18.048;2024-02-21T08:56:06;4.70;99.90
10282;DHT22;5186;59.472;18.048;2024-02-21T08:58:36;4.70;99.90
10282;DHT22;5186;59.472;18.048;2024-02-21T09:01:03;4.80;99.90
10282;DHT22;5186;59.472;18.048;2024-02-21T09:03:38;4.80;99.90
10282;DHT22;5186;59.472;18.048;2024-02-21T09:06:05;4.80;99.90
10282;DHT22;5186;59.472;18.048;2024-02-21T09:08:31;4.90;99.90
10282;DHT22;5186;59.472;18.048;2024-02-21T09:10:57;4.90;99.90
10282;DHT22;5186;59.472;18.048;2024-02-21T09:13:22;4.90;99.90
10282;DHT22;5186;59.472;18.048;2024-02-21T09:15:49;5.00;99.90
10282;DHT22;5186;59.472;18.048;2024-02-21T09:18:15;5.10;99.90
10282;DHT22;5186;59.472;18.048;2024-02-21T09:20:41;5.10;99.90
10282;DHT22;5186;59.472;18.048;2024-02-21T09:23:07;5.10;99.90
10282;DHT22;5186;59.472;18.048;2024-02-21T09:25:32;5.20;99.90
10282;DHT22;5186;59.472;18.048;2024-02-21T09:27:59;5.20;99.90
10282;DHT22;5186;59.472;18.048;2024-02-21T09:30:24;5.30;99.90
10282;DHT22;5186;59.472;18.048;2024-02-21T09:32:51;5.30;99.90
10282;DHT22;5186;59.472;18.048;2024-02-21T09:35:18;5.40;99.90
10282;DHT22;5186;59.472;18.048;2024-02-21T09:37:43;5.40;99.90
10282;DHT22;5186;59.472;18.048;2024-02-21T09:40:09;5.50;99.90
10282;DHT22;5186;59.472;18.048;2024-02-21T09:42:38;5.50;99.90
10282;DHT22;5186;59.472;18.048;2024-02-21T09:50:43;5.60;99.90
10282;DHT22;5186;59.472;18.048;2024-02-21T09:53:12;5.70;99.90
10282;DHT22;5186;59.472;18.048;2024-02-21T09:55:39;5.70;99.90
10282;DHT22;5186;59.472;18.048;2024-02-21T09:58:07;5.70;99.90
10282;DHT22;5186;59.472;18.048;2024-02-21T10:00:33;5.80;99.90
10282;DHT22;5186;59.472;18.048;2024-02-21T10:02:59;5.70;99.90
10282;DHT22;5186;59.472;18.048;2024-02-21T10:05:24;5.70;99.90
10282;DHT22;5186;59.472;18.048;2024-02-21T10:07:51;5.70;99.90
10282;DHT22;5186;59.472;18.048;2024-02-21T10:10:17;5.80;99.90
10282;DHT22;5186;59.472;18.048;2024-02-21T10:12:51;5.80;99.90
10282;DHT22;5186;59.472;18.048;2024-02-21T10:15:24;5.80;99.90
10282;DHT22;5186;59.472;18.048;2024-02-21T10:18:00;5.90;99.90
10282;DHT22;5186;59.472;18.048;2024-02-21T10:20:26;5.90;99.90
10282;DHT22;5186;59.472;18.048;2024-02-21T10:23:05;5.90;99.90
10282;DHT22;5186;59.472;18.048;2024-02-21T10:25:35;6.00;99.90
10282;DHT22;5186;59.472;18.048;2024-02-21T10:28:04;6.00;99.90
10282;DHT22;5186;59.472;18.048;2024-02-21T10:30:29;6.10;99.90
10282;DHT22;5186;59.472;18.048;2024-02-21T10:32:55;6.10;99.90
10282;DHT22;5186;59.472;18.048;2024-02-21T10:35:33;6.10;99.90
10282;DHT22;5186;59.472;18.048;2024-02-21T10:37:59;6.10;99.90
10282;DHT22;5186;59.472;18.048;2024-02-21T10:40:29;6.20;99.90
10282;DHT22;5186;59.472;18.048;2024-02-21T10:43:01;6.20;99.90
10282;DHT22;5186;59.472;18.048;2024-02-21T10:45:31;6.20;99.90
10282;DHT22;5186;59.472;18.048;2024-02-21T10:48:12;6.20;99.90
10282;DHT22;5186;59.472;18.048;2024-02-21T10:53:40;6.30;99.90
10282;DHT22;5186;59.472;18.048;2024-02-21T10:58:53;6.30;99.90
10282;DHT22;5186;59.472;18.048;2024-02-21T11:01:19;6.30;99.90
10282;DHT22;5186;59.472;18.048;2024-02-21T11:03:47;6.30;99.90
10282;DHT22;5186;59.472;18.048;2024-02-21T11:06:15;6.30;99.90
10282;DHT22;5186;59.472;18.048;2024-02-21T11:08:41;6.30;99.90
10282;DHT22;5186;59.472;18.048;2024-02-21T11:11:07;6.30;99.90
10282;DHT22;5186;59.472;18.048;2024-02-21T11:13:35;6.30;99.90
10282;DHT22;5186;59.472;18.048;2024-02-21T11:16:11;6.30;99.90
10282;DHT22;5186;59.472;18.048;2024-02-21T11:18:39;6.30;99.90
10282;DHT22;5186;59.472;18.048;2024-02-21T11:21:05;6.20;99.90
10282;DHT22;5186;59.472;18.048;2024-02-21T11:23:31;6.20;99.90
10282;DHT22;5186;59.472;18.048;2024-02-21T11:26:07;6.30;99.90
10282;DHT22;5186;59.472;18.048;2024-02-21T11:28:33;6.30;99.90
10282;DHT22;5186;59.472;18.048;2024-02-21T11:31:09;6.20;99.90
10282;DHT22;5186;59.472;18.048;2024-02-21T11:33:35;6.20;99.90
10282;DHT22;5186;59.472;18.048;2024-02-21T11:36:01;6.30;99.90
10282;DHT22;5186;59.472;18.048;2024-02-21T11:38:29;6.20;99.90
10282;DHT22;5186;59.472;18.048;2024-02-21T11:40:55;6.20;99.90
10282;DHT22;5186;59.472;18.048;2024-02-21T11:43:21;6.20;99.90
10282;DHT22;5186;59.472;18.048;2024-02-21T11:45:46;6.20;99.90
10282;DHT22;5186;59.472;18.048;2024-02-21T11:48:12;6.20;99.90
10282;DHT22;5186;59.472;18.048;2024-02-21T11:50:38;6.20;99.90
10282;DHT22;5186;59.472;18.048;2024-02-21T11:53:05;6.20;99.90
10282;DHT22;5186;59.472;18.048;2024-02-21T11:55:30;6.20;99.90
10282;DHT22;5186;59.472;18.048;2024-02-21T11:57:56;6.20;99.90
10282;DHT22;5186;59.472;18.048;2024-02-21T12:00:22;6.20;99.90
10282;DHT22;5186;59.472;18.048;2024-02-21T12:02:51;6.20;99.90
10282;DHT22;5186;59.472;18.048;2024-02-21T12:05:19;6.10;99.90
10282;DHT22;5186;59.472;18.048;2024-02-21T12:07:45;6.10;99.90
10282;DHT22;5186;59.472;18.048;2024-02-21T12:10:12;6.10;99.90
10282;DHT22;5186;59.472;18.048;2024-02-21T12:12:38;6.20;99.90
10282;DHT22;5186;59.472;18.048;2024-02-21T12:15:05;6.10;99.90
10282;DHT22;5186;59.472;18.048;2024-02-21T12:17:34;6.10;99.90
10282;DHT22;5186;59.472;18.048;2024-02-21T12:20:06;6.20;99.90
10282;DHT22;5186;59.472;18.048;2024-02-21T12:22:35;6.20;99.90
10282;DHT22;5186;59.472;18.048;2024-02-21T12:25:07;6.20;99.90
10282;DHT22;5186;59.472;18.048;2024-02-21T12:27:41;6.20;99.90
10282;DHT22;5186;59.472;18.048;2024-02-21T12:30:07;6.20;99.90
10282;DHT22;5186;59.472;18.048;2024-02-21T12:32:35;6.20;99.90
10282;DHT22;5186;59.472;18.048;2024-02-21T12:35:01;6.20;99.90
10282;DHT22;5186;59.472;18.048;2024-02-21T12:37:27;6.20;99.90
10282;DHT22;5186;59.472;18.048;2024-02-21T12:39:53;6.20;99.90
10282;DHT22;5186;59.472;18.048;2024-02-21T12:42:19;6.20;99.90
10282;DHT22;5186;59.472;18.048;2024-02-21T12:44:45;6.20;99.90
10282;DHT22;5186;59.472;18.048;2024-02-21T12:47:11;6.20;99.90
10282;DHT22;5186;59.472;18.048;2024-02-21T12:49:37;6.20;99.90
10282;DHT22;5186;59.472;18.048;2024-02-21T12:52:03;6.20;99.90
10282;DHT22;5186;59.472;18.048;2024-02-21T12:54:29;6.20;99.90
10282;DHT22;5186;59.472;18.048;2024-02-21T12:56:56;6.20;99.90
10282;DHT22;5186;59.472;18.048;2024-02-21T12:59:22;6.30;99.90
10282;DHT22;5186;59.472;18.048;2024-02-21T13:01:48;6.20;99.90
10282;DHT22;5186;59.472;18.048;2024-02-21T13:04:14;6.20;99.90
10282;DHT22;5186;59.472;18.048;2024-02-21T13:06:39;6.20;99.90
10282;DHT22;5186;59.472;18.048;2024-02-21T13:09:05;6.20;99.90
10282;DHT22;5186;59.472;18.048;2024-02-21T13:11:34;6.20;99.90
10282;DHT22;5186;59.472;18.048;2024-02-21T13:14:00;6.20;99.90
10282;DHT22;5186;59.472;18.048;2024-02-21T13:16:25;6.20;99.90
10282;DHT22;5186;59.472;18.048;2024-02-21T13:18:54;6.20;99.90
10282;DHT22;5186;59.472;18.048;2024-02-21T13:21:20;6.20;99.90
10282;DHT22;5186;59.472;18.048;2024-02-21T13:23:45;6.20;99.90
10282;DHT22;5186;59.472;18.048;2024-02-21T13:26:11;6.20;99.90
10282;DHT22;5186;59.472;18.048;2024-02-21T13:28:38;6.30;99.90
10282;DHT22;5186;59.472;18.048;2024-02-21T13:31:03;6.30;99.90
10282;DHT22;5186;59.472;18.048;2024-02-21T13:33:29;6.30;99.90
10282;DHT22;5186;59.472;18.048;2024-02-21T13:35:55;6.40;99.90
10282;DHT22;5186;59.472;18.048;2024-02-21T13:38:21;6.40;99.90
10282;DHT22;5186;59.472;18.048;2024-02-21T13:40:46;6.30;99.90
10282;DHT22;5186;59.472;18.048;2024-02-21T13:43:12;6.30;99.90
10282;DHT22;5186;59.472;18.048;2024-02-21T13:45:38;6.30;99.90
10282;DHT22;5186;59.472;18.048;2024-02-21T13:48:05;6.30;99.90
10282;DHT22;5186;59.472;18.048;2024-02-21T13:50:31;6.30;99.90
10282;DHT22;5186;59.472;18.048;2024-02-21T13:52:58;6.40;99.90
10282;DHT22;5186;59.472;18.048;2024-02-21T13:55:23;6.40;99.90
10282;DHT22;5186;59.472;18.048;2024-02-21T13:57:51;6.40;99.90
10282;DHT22;5186;59.472;18.048;2024-02-21T14:00:17;6.40;99.90
10282;DHT22;5186;59.472;18.048;2024-02-21T14:02:43;6.40;99.90
10282;DHT22;5186;59.472;18.048;2024-02-21T14:05:10;6.40;99.90
10282;DHT22;5186;59.472;18.048;2024-02-21T14:07:36;6.40;99.90
10282;DHT22;5186;59.472;18.048;2024-02-21T14:10:02;6.40;99.90
10282;DHT22;5186;59.472;18.048;2024-02-21T14:12:29;6.40;99.90
10282;DHT22;5186;59.472;18.048;2024-02-21T14:14:54;6.40;99.90
10282;DHT22;5186;59.472;18.048;2024-02-21T14:17:23;6.40;99.90
10282;DHT22;5186;59.472;18.048;2024-02-21T14:19:50;6.30;99.90
10282;DHT22;5186;59.472;18.048;2024-02-21T14:22:17;6.30;99.90
10282;DHT22;5186;59.472;18.048;2024-02-21T14:24:42;6.30;99.90
10282;DHT22;5186;59.472;18.048;2024-02-21T14:27:08;6.30;99.90
10282;DHT22;5186;59.472;18.048;2024-02-21T14:29:34;6.30;99.90
10282;DHT22;5186;59.472;18.048;2024-02-21T14:32:00;6.30;99.90
10282;DHT22;5186;59.472;18.048;2024-02-21T14:34:25;6.30;99.90
10282;DHT22;5186;59.472;18.048;2024-02-21T14:36:52;6.30;99.90
10282;DHT22;5186;59.472;18.048;2024-02-21T14:39:17;6.30;99.90
10282;DHT22;5186;59.472;18.048;2024-02-21T14:41:43;6.30;99.90
10282;DHT22;5186;59.472;18.048;2024-02-21T14:44:09;6.30;99.90
10282;DHT22;5186;59.472;18.048;2024-02-21T14:46:35;6.20;99.90
10282;DHT22;5186;59.472;18.048;2024-02-21T14:49:01;6.20;99.90
10282;DHT22;5186;59.472;18.048;2024-02-21T14:51:26;6.20;99.90
10282;DHT22;5186;59.472;18.048;2024-02-21T14:53:52;6.20;99.90
10282;DHT22;5186;59.472;18.048;2024-02-21T14:56:18;6.20;99.90
10282;DHT22;5186;59.472;18.048;2024-02-21T14:58:43;6.20;99.90
10282;DHT22;5186;59.472;18.048;2024-02-21T15:01:09;6.20;99.90
10282;DHT22;5186;59.472;18.048;2024-02-21T15:03:35;6.20;99.90
10282;DHT22;5186;59.472;18.048;2024-02-21T15:06:04;6.20;99.90
10282;DHT22;5186;59.472;18.048;2024-02-21T15:08:29;6.20;99.90
10282;DHT22;5186;59.472;18.048;2024-02-21T15:10:55;6.20;99.90
10282;DHT22;5186;59.472;18.048;2024-02-21T15:13:21;6.10;99.90
10282;DHT22;5186;59.472;18.048;2024-02-21T15:15:48;6.10;99.90
10282;DHT22;5186;59.472;18.048;2024-02-21T15:18:17;6.10;99.90
10282;DHT22;5186;59.472;18.048;2024-02-21T15:20:43;6.10;99.90
10282;DHT22;5186;59.472;18.048;2024-02-21T15:23:09;6.10;99.90
10282;DHT22;5186;59.472;18.048;2024-02-21T15:25:35;6.20;99.90
10282;DHT22;5186;59.472;18.048;2024-02-21T15:28:00;6.20;99.90
10282;DHT22;5186;59.472;18.048;2024-02-21T15:30:28;6.20;99.90
10282;DHT22;5186;59.472;18.048;2024-02-21T15:32:57;6.20;99.90
10282;DHT22;5186;59.472;18.048;2024-02-21T15:35:27;6.20;99.90
10282;DHT22;5186;59.472;18.048;2024-02-21T15:37:53;6.10;99.90
10282;DHT22;5186;59.472;18.048;2024-02-21T15:40:18;6.10;99.90
10282;DHT22;5186;59.472;18.048;2024-02-21T15:42:44;6.10;99.90
10282;DHT22;5186;59.472;18.048;2024-02-21T15:45:10;6.10;99.90
10282;DHT22;5186;59.472;18.048;2024-02-21T15:47:35;6.10;99.90
10282;DHT22;5186;59.472;18.048;2024-02-21T15:50:01;6.10;99.90
10282;DHT22;5186;59.472;18.048;2024-02-21T15:52:27;6.10;99.90